createdAt,value
2018-01-07T00:00:22.099Z,2.54
2018-01-07T00:00:26.332Z,2.54
2018-01-07T00:00:30.661Z,2.54
2018-01-07T00:00:34.572Z,2.54
2018-01-07T00:00:38.959Z,2.54
2018-01-07T00:00:43.166Z,2.53
2018-01-07T00:00:47.289Z,2.54
2018-01-07T00:00:51.417Z,2.54
2018-01-07T00:00:55.431Z,2.54
2018-01-07T00:00:59.437Z,2.54
2018-01-07T00:01:03.828Z,2.55
2018-01-07T00:01:07.943Z,2.54
2018-01-07T00:01:12.072Z,2.54
2018-01-07T00:01:16.082Z,2.54
2018-01-07T00:01:20.306Z,2.54
2018-01-07T00:01:24.549Z,2.54
2018-01-07T00:01:28.568Z,2.54
2018-01-07T00:01:32.905Z,2.54
2018-01-07T00:01:37.286Z,2.55
2018-01-07T00:01:41.509Z,2.54
2018-01-07T00:01:45.729Z,2.54
2018-01-07T00:01:49.768Z,2.53
2018-01-07T00:01:53.903Z,2.54
2018-01-07T00:01:58.224Z,2.54
2018-01-07T00:02:02.292Z,2.53
2018-01-07T00:02:06.310Z,2.54
2018-01-07T00:02:10.445Z,2.54
2018-01-07T00:02:14.673Z,2.54
2018-01-07T00:02:18.994Z,2.54
2018-01-07T00:02:23.227Z,2.54
2018-01-07T00:02:27.450Z,2.54
2018-01-07T00:02:31.582Z,2.54
2018-01-07T00:02:35.717Z,2.53
2018-01-07T00:02:39.949Z,2.54
2018-01-07T00:02:44.194Z,2.53
2018-01-07T00:02:48.416Z,2.53
2018-01-07T00:02:52.759Z,2.54
2018-01-07T00:02:57.103Z,2.54
2018-01-07T00:03:01.435Z,2.54
2018-01-07T00:03:05.664Z,2.54
2018-01-07T00:03:09.904Z,2.54
2018-01-07T00:03:14.020Z,2.55
2018-01-07T00:03:18.262Z,2.54
2018-01-07T00:03:22.494Z,2.54
2018-01-07T00:03:26.513Z,2.53
2018-01-07T00:03:30.647Z,2.54
2018-01-07T00:03:34.879Z,2.54
2018-01-07T00:03:39.272Z,2.54
2018-01-07T00:03:43.502Z,2.54
2018-01-07T00:03:47.611Z,2.55
2018-01-07T00:03:51.825Z,2.55
2018-01-07T00:03:56.156Z,2.54
2018-01-07T00:04:00.265Z,2.55
2018-01-07T00:04:04.603Z,2.54
2018-01-07T00:04:08.713Z,2.54
2018-01-07T00:04:12.939Z,2.54
2018-01-07T00:04:17.171Z,2.54
2018-01-07T00:04:21.194Z,2.54
2018-01-07T00:04:25.223Z,2.54
2018-01-07T00:04:29.339Z,2.54
2018-01-07T00:04:33.567Z,2.55
2018-01-07T00:04:37.804Z,2.54
2018-01-07T00:04:42.035Z,2.54
2018-01-07T00:04:46.159Z,2.54
2018-01-07T00:04:50.184Z,2.54
2018-01-07T00:04:54.306Z,2.54
2018-01-07T00:04:58.645Z,2.54
2018-01-07T00:05:02.872Z,2.53
2018-01-07T00:05:06.991Z,2.54
2018-01-07T00:05:11.228Z,2.53
2018-01-07T00:05:15.287Z,2.53
2018-01-07T00:05:19.609Z,2.53
2018-01-07T00:05:23.941Z,2.54
2018-01-07T00:05:28.299Z,2.53
2018-01-07T00:05:32.531Z,2.54
2018-01-07T00:05:36.548Z,2.54
2018-01-07T00:05:40.939Z,2.53
2018-01-07T00:05:45.163Z,2.54
2018-01-07T00:05:49.078Z,2.54
2018-01-07T00:05:53.212Z,2.54
2018-01-07T00:05:57.547Z,2.54
2018-01-07T00:06:01.770Z,2.53
2018-01-07T00:06:05.917Z,2.54
2018-01-07T00:06:10.047Z,2.54
2018-01-07T00:06:14.386Z,2.53
2018-01-07T00:06:18.522Z,2.54
2018-01-07T00:06:22.753Z,2.53
2018-01-07T00:06:26.980Z,2.54
2018-01-07T00:06:31.098Z,2.53
2018-01-07T00:06:35.112Z,2.53
2018-01-07T00:06:39.347Z,2.53
2018-01-07T00:06:43.460Z,2.53
2018-01-07T00:06:47.662Z,2.54
2018-01-07T00:06:51.886Z,2.53
2018-01-07T00:06:56.213Z,2.53
2018-01-07T00:07:00.226Z,2.53
2018-01-07T00:07:04.555Z,2.54
2018-01-07T00:07:08.885Z,2.54
2018-01-07T00:07:13.018Z,2.53
2018-01-07T00:07:17.342Z,2.54
2018-01-07T00:07:21.558Z,2.54
2018-01-07T00:07:25.795Z,2.53
2018-01-07T00:07:30.028Z,2.54
2018-01-07T00:07:34.199Z,2.54
2018-01-07T00:07:38.423Z,2.53
2018-01-07T00:07:42.555Z,2.54
2018-01-07T00:07:46.685Z,2.54
2018-01-07T00:07:50.811Z,2.54
2018-01-07T00:07:54.826Z,2.54
2018-01-07T00:07:59.072Z,2.54
2018-01-07T00:08:03.446Z,2.54
2018-01-07T00:08:07.688Z,2.54
2018-01-07T00:08:11.918Z,2.54
2018-01-07T00:08:16.143Z,2.54
2018-01-07T00:08:20.149Z,2.53
2018-01-07T00:08:24.272Z,2.53
2018-01-07T00:08:28.294Z,2.53
2018-01-07T00:08:32.565Z,2.53
2018-01-07T00:08:36.899Z,2.53
2018-01-07T00:08:41.020Z,2.53
2018-01-07T00:08:45.240Z,2.53
2018-01-07T00:08:49.274Z,2.53
2018-01-07T00:08:53.510Z,2.53
2018-01-07T00:08:57.883Z,2.54
2018-01-07T00:09:02.106Z,2.53
2018-01-07T00:09:06.322Z,2.54
2018-01-07T00:09:10.660Z,2.53
2018-01-07T00:09:14.828Z,2.53
2018-01-07T00:09:18.934Z,2.53
2018-01-07T00:09:23.257Z,2.53
2018-01-07T00:09:27.392Z,2.53
2018-01-07T00:09:31.624Z,2.53
2018-01-07T00:09:35.867Z,2.53
2018-01-07T00:09:39.984Z,2.53
2018-01-07T00:09:44.128Z,2.54
2018-01-07T00:09:48.144Z,2.53
2018-01-07T00:09:52.144Z,2.53
2018-01-07T00:09:56.366Z,2.53
2018-01-07T00:10:00.712Z,2.53
2018-01-07T00:10:04.900Z,2.54
2018-01-07T00:10:09.137Z,2.53
2018-01-07T00:10:13.492Z,2.53
2018-01-07T00:10:17.725Z,2.53
2018-01-07T00:10:22.120Z,2.54
2018-01-07T00:10:26.460Z,2.53
2018-01-07T00:10:30.491Z,2.53
2018-01-07T00:10:34.729Z,2.53
2018-01-07T00:10:38.766Z,2.53
2018-01-07T00:10:42.998Z,2.53
2018-01-07T00:10:47.391Z,2.53
2018-01-07T00:10:51.522Z,2.53
2018-01-07T00:10:55.839Z,2.53
2018-01-07T00:10:59.861Z,2.53
2018-01-07T00:11:04.192Z,2.53
2018-01-07T00:11:08.529Z,2.53
2018-01-07T00:11:12.857Z,2.53
2018-01-07T00:11:17.084Z,2.53
2018-01-07T00:11:21.104Z,2.53
2018-01-07T00:11:25.464Z,2.53
2018-01-07T00:11:29.798Z,2.53
2018-01-07T00:11:33.711Z,2.52
2018-01-07T00:11:37.936Z,2.52
2018-01-07T00:11:42.314Z,2.52
2018-01-07T00:11:46.440Z,2.52
2018-01-07T00:11:50.358Z,2.52
2018-01-07T00:11:54.490Z,2.52
2018-01-07T00:11:58.715Z,2.52
2018-01-07T00:12:02.947Z,2.53
2018-01-07T00:12:07.079Z,2.53
2018-01-07T00:12:11.208Z,2.53
2018-01-07T00:12:15.219Z,2.52
2018-01-07T00:12:19.453Z,2.53
2018-01-07T00:12:23.683Z,2.53
2018-01-07T00:12:27.921Z,2.53
2018-01-07T00:12:32.039Z,2.53
2018-01-07T00:12:36.368Z,2.52
2018-01-07T00:12:40.584Z,2.52
2018-01-07T00:12:44.813Z,2.52
2018-01-07T00:12:48.834Z,2.53
2018-01-07T00:12:53.110Z,2.52
2018-01-07T00:12:57.247Z,2.52
2018-01-07T00:13:01.290Z,2.51
2018-01-07T00:13:05.646Z,2.52
2018-01-07T00:13:09.987Z,2.52
2018-01-07T00:13:14.215Z,2.52
2018-01-07T00:13:18.438Z,2.52
2018-01-07T00:13:22.677Z,2.53
2018-01-07T00:13:26.805Z,2.53
2018-01-07T00:13:30.819Z,2.53
2018-01-07T00:13:34.748Z,2.53
2018-01-07T00:13:38.970Z,2.53
2018-01-07T00:13:43.199Z,2.52
2018-01-07T00:13:47.443Z,2.54
2018-01-07T00:13:51.570Z,2.53
2018-01-07T00:13:55.800Z,2.52
2018-01-07T00:14:00.041Z,2.52
2018-01-07T00:14:04.170Z,2.52
2018-01-07T00:14:08.517Z,2.53
2018-01-07T00:14:12.628Z,2.53
2018-01-07T00:14:16.856Z,2.53
2018-01-07T00:14:21.181Z,2.54
2018-01-07T00:14:25.318Z,2.52
2018-01-07T00:14:29.454Z,2.54
2018-01-07T00:14:33.794Z,2.52
2018-01-07T00:14:38.142Z,2.52
2018-01-07T00:14:42.485Z,2.53
2018-01-07T00:14:46.607Z,2.53
2018-01-07T00:14:50.607Z,2.53
2018-01-07T00:14:54.729Z,2.53
2018-01-07T00:14:58.750Z,2.53
2018-01-07T00:15:03.293Z,2.52
2018-01-07T00:15:07.333Z,2.52
2018-01-07T00:15:11.651Z,2.53
2018-01-07T00:15:15.969Z,2.53
2018-01-07T00:15:20.099Z,2.53
2018-01-07T00:15:24.565Z,2.53
2018-01-07T00:15:28.803Z,2.53
2018-01-07T00:15:32.923Z,2.53
2018-01-07T00:15:37.151Z,2.53
2018-01-07T00:15:41.379Z,2.54
2018-01-07T00:15:45.725Z,2.53
2018-01-07T00:15:49.949Z,2.54
2018-01-07T00:15:54.081Z,2.53
2018-01-07T00:15:58.313Z,2.54
2018-01-07T00:16:02.891Z,2.53
2018-01-07T00:16:07.034Z,2.54
2018-01-07T00:16:11.372Z,2.53
2018-01-07T00:16:15.489Z,2.54
2018-01-07T00:16:19.715Z,2.54
2018-01-07T00:16:23.828Z,2.54
2018-01-07T00:16:28.054Z,2.54
2018-01-07T00:16:32.175Z,2.55
2018-01-07T00:16:36.513Z,2.54
2018-01-07T00:16:40.902Z,2.55
2018-01-07T00:16:45.225Z,2.55
2018-01-07T00:16:49.574Z,2.55
2018-01-07T00:16:53.843Z,2.54
2018-01-07T00:16:58.066Z,2.55
2018-01-07T00:17:02.460Z,2.54
2018-01-07T00:17:06.795Z,2.55
2018-01-07T00:17:11.041Z,2.54
2018-01-07T00:17:15.148Z,2.55
2018-01-07T00:17:19.273Z,2.55
2018-01-07T00:17:23.402Z,2.55
2018-01-07T00:17:27.512Z,2.55
2018-01-07T00:17:31.648Z,2.55
2018-01-07T00:17:35.992Z,2.54
2018-01-07T00:17:40.320Z,2.55
2018-01-07T00:17:44.442Z,2.55
2018-01-07T00:17:48.654Z,2.55
2018-01-07T00:17:52.912Z,2.55
2018-01-07T00:17:57.255Z,2.55
2018-01-07T00:18:01.589Z,2.55
2018-01-07T00:18:05.932Z,2.56
2018-01-07T00:18:10.040Z,2.56
2018-01-07T00:18:14.048Z,2.55
2018-01-07T00:18:17.970Z,2.55
2018-01-07T00:18:22.219Z,2.55
2018-01-07T00:18:26.371Z,2.55
2018-01-07T00:18:30.631Z,2.56
2018-01-07T00:18:34.667Z,2.56
2018-01-07T00:18:38.781Z,2.55
2018-01-07T00:18:43.029Z,2.56
2018-01-07T00:18:47.325Z,2.56
2018-01-07T00:18:51.450Z,2.56
2018-01-07T00:18:55.685Z,2.56
2018-01-07T00:18:59.712Z,2.55
2018-01-07T00:19:03.949Z,2.56
2018-01-07T00:19:08.275Z,2.57
2018-01-07T00:19:12.496Z,2.56
2018-01-07T00:19:16.617Z,2.56
2018-01-07T00:19:20.954Z,2.57
2018-01-07T00:19:25.075Z,2.56
2018-01-07T00:19:28.989Z,2.57
2018-01-07T00:19:33.095Z,2.56
2018-01-07T00:19:37.322Z,2.56
2018-01-07T00:19:41.650Z,2.55
2018-01-07T00:19:45.996Z,2.56
2018-01-07T00:19:50.007Z,2.55
2018-01-07T00:19:54.167Z,2.56
2018-01-07T00:19:58.443Z,2.55
2018-01-07T00:20:02.922Z,2.55
2018-01-07T00:20:07.138Z,2.56
2018-01-07T00:20:11.466Z,2.56
2018-01-07T00:20:15.806Z,2.55
2018-01-07T00:20:19.917Z,2.56
2018-01-07T00:20:23.972Z,2.56
2018-01-07T00:20:28.212Z,2.55
2018-01-07T00:20:32.436Z,2.55
2018-01-07T00:20:36.658Z,2.55
2018-01-07T00:20:40.980Z,2.55
2018-01-07T00:20:45.198Z,2.54
2018-01-07T00:20:49.330Z,2.55
2018-01-07T00:20:53.454Z,2.55
2018-01-07T00:20:57.561Z,2.55
2018-01-07T00:21:01.799Z,2.55
2018-01-07T00:21:06.063Z,2.54
2018-01-07T00:21:10.301Z,2.55
2018-01-07T00:21:14.458Z,2.55
2018-01-07T00:21:18.635Z,2.54
2018-01-07T00:21:22.863Z,2.54
2018-01-07T00:21:26.979Z,2.54
2018-01-07T00:21:31.335Z,2.54
2018-01-07T00:21:35.460Z,2.53
2018-01-07T00:21:39.679Z,2.54
2018-01-07T00:21:44.010Z,2.53
2018-01-07T00:21:48.305Z,2.53
2018-01-07T00:21:52.430Z,2.54
2018-01-07T00:21:56.448Z,2.53
2018-01-07T00:22:00.569Z,2.53
2018-01-07T00:22:04.960Z,2.53
2018-01-07T00:22:09.215Z,2.53
2018-01-07T00:22:13.330Z,2.53
2018-01-07T00:22:17.456Z,2.52
2018-01-07T00:22:21.569Z,2.53
2018-01-07T00:22:25.915Z,2.53
2018-01-07T00:22:30.052Z,2.53
2018-01-07T00:22:34.187Z,2.53
2018-01-07T00:22:38.315Z,2.52
2018-01-07T00:22:42.535Z,2.53
2018-01-07T00:22:46.769Z,2.52
2018-01-07T00:22:50.994Z,2.52
2018-01-07T00:22:55.228Z,2.53
2018-01-07T00:22:59.468Z,2.52
2018-01-07T00:23:03.495Z,2.52
2018-01-07T00:23:07.631Z,2.53
2018-01-07T00:23:11.796Z,2.52
2018-01-07T00:23:16.042Z,2.51
2018-01-07T00:23:20.267Z,2.52
2018-01-07T00:23:24.499Z,2.52
2018-01-07T00:23:28.631Z,2.52
2018-01-07T00:23:32.751Z,2.52
2018-01-07T00:23:36.988Z,2.51
2018-01-07T00:23:41.014Z,2.52
2018-01-07T00:23:45.256Z,2.52
2018-01-07T00:23:49.492Z,2.51
2018-01-07T00:23:53.731Z,2.51
2018-01-07T00:23:57.952Z,2.51
2018-01-07T00:24:02.426Z,2.51
2018-01-07T00:24:06.642Z,2.51
2018-01-07T00:24:10.784Z,2.51
2018-01-07T00:24:15.010Z,2.52
2018-01-07T00:24:19.109Z,2.52
2018-01-07T00:24:23.229Z,2.51
2018-01-07T00:24:27.476Z,2.51
2018-01-07T00:24:31.612Z,2.51
2018-01-07T00:24:35.847Z,2.52
2018-01-07T00:24:40.079Z,2.52
2018-01-07T00:24:44.197Z,2.52
2018-01-07T00:24:48.561Z,2.51
2018-01-07T00:24:52.910Z,2.52
2018-01-07T00:24:57.257Z,2.52
2018-01-07T00:25:01.537Z,2.52
2018-01-07T00:25:05.914Z,2.52
2018-01-07T00:25:10.247Z,2.52
2018-01-07T00:25:14.580Z,2.52
2018-01-07T00:25:18.814Z,2.51
2018-01-07T00:25:23.152Z,2.52
2018-01-07T00:25:27.270Z,2.51
2018-01-07T00:25:31.393Z,2.52
2018-01-07T00:25:35.323Z,2.51
2018-01-07T00:25:39.555Z,2.52
2018-01-07T00:25:43.466Z,2.51
2018-01-07T00:25:47.483Z,2.51
2018-01-07T00:25:51.823Z,2.52
2018-01-07T00:25:55.957Z,2.52
2018-01-07T00:26:00.209Z,2.52
2018-01-07T00:26:04.547Z,2.51
2018-01-07T00:26:08.678Z,2.51
2018-01-07T00:26:12.789Z,2.52
2018-01-07T00:26:17.110Z,2.51
2018-01-07T00:26:21.471Z,2.51
2018-01-07T00:26:25.695Z,2.51
2018-01-07T00:26:30.029Z,2.5
2018-01-07T00:26:34.149Z,2.51
2018-01-07T00:26:38.284Z,2.51
2018-01-07T00:26:42.510Z,2.5
2018-01-07T00:26:46.634Z,2.51
2018-01-07T00:26:50.853Z,2.51
2018-01-07T00:26:54.972Z,2.51
2018-01-07T00:26:58.890Z,2.5
2018-01-07T00:27:03.526Z,2.51
2018-01-07T00:27:07.855Z,2.5
2018-01-07T00:27:11.988Z,2.5
2018-01-07T00:27:16.346Z,2.5
2018-01-07T00:27:20.681Z,2.49
2018-01-07T00:27:24.916Z,2.5
2018-01-07T00:27:29.038Z,2.49
2018-01-07T00:27:32.940Z,2.5
2018-01-07T00:27:37.166Z,2.49
2018-01-07T00:27:41.396Z,2.49
2018-01-07T00:27:45.638Z,2.49
2018-01-07T00:27:49.874Z,2.48
2018-01-07T00:27:54.107Z,2.48
2018-01-07T00:27:58.333Z,2.48
2018-01-07T00:28:02.612Z,2.49
2018-01-07T00:28:06.627Z,2.48
2018-01-07T00:28:10.758Z,2.48
2018-01-07T00:28:14.993Z,2.47
2018-01-07T00:28:19.223Z,2.48
2018-01-07T00:28:23.228Z,2.47
2018-01-07T00:28:27.560Z,2.48
2018-01-07T00:28:31.690Z,2.48
2018-01-07T00:28:35.802Z,2.47
2018-01-07T00:28:40.049Z,2.47
2018-01-07T00:28:44.171Z,2.47
2018-01-07T00:28:48.492Z,2.47
2018-01-07T00:28:52.632Z,2.48
2018-01-07T00:28:56.761Z,2.48
2018-01-07T00:29:00.983Z,2.47
2018-01-07T00:29:05.567Z,2.47
2018-01-07T00:29:09.706Z,2.47
2018-01-07T00:29:13.933Z,2.48
2018-01-07T00:29:18.258Z,2.47
2018-01-07T00:29:22.488Z,2.47
2018-01-07T00:29:26.518Z,2.46
2018-01-07T00:29:30.545Z,2.48
2018-01-07T00:29:34.624Z,2.47
2018-01-07T00:29:38.956Z,2.47
2018-01-07T00:29:43.074Z,2.48
2018-01-07T00:29:47.307Z,2.47
2018-01-07T00:29:51.428Z,2.48
2018-01-07T00:29:55.445Z,2.48
2018-01-07T00:29:59.566Z,2.48
2018-01-07T00:30:04.093Z,2.48
2018-01-07T00:30:08.236Z,2.46
2018-01-07T00:30:12.460Z,2.48
2018-01-07T00:30:16.775Z,2.48
2018-01-07T00:30:21.116Z,2.48
2018-01-07T00:30:25.349Z,2.47
2018-01-07T00:30:29.585Z,2.48
2018-01-07T00:30:33.810Z,2.48
2018-01-07T00:30:38.159Z,2.48
2018-01-07T00:30:42.484Z,2.47
2018-01-07T00:30:46.698Z,2.47
2018-01-07T00:30:50.928Z,2.48
2018-01-07T00:30:55.063Z,2.48
2018-01-07T00:30:59.300Z,2.47
2018-01-07T00:31:03.727Z,2.47
2018-01-07T00:31:07.952Z,2.46
2018-01-07T00:31:12.080Z,2.48
2018-01-07T00:31:16.402Z,2.48
2018-01-07T00:31:20.641Z,2.47
2018-01-07T00:31:24.758Z,2.48
2018-01-07T00:31:28.666Z,2.47
2018-01-07T00:31:32.800Z,2.48
2018-01-07T00:31:37.029Z,2.48
2018-01-07T00:31:41.365Z,2.47
2018-01-07T00:31:45.579Z,2.48
2018-01-07T00:31:49.794Z,2.48
2018-01-07T00:31:53.806Z,2.48
2018-01-07T00:31:57.820Z,2.48
2018-01-07T00:32:01.844Z,2.48
2018-01-07T00:32:05.883Z,2.48
2018-01-07T00:32:10.215Z,2.48
2018-01-07T00:32:14.449Z,2.48
2018-01-07T00:32:18.675Z,2.48
2018-01-07T00:32:22.805Z,2.49
2018-01-07T00:32:26.926Z,2.49
2018-01-07T00:32:31.046Z,2.49
2018-01-07T00:32:35.274Z,2.49
2018-01-07T00:32:39.504Z,2.48
2018-01-07T00:32:43.733Z,2.49
2018-01-07T00:32:47.847Z,2.49
2018-01-07T00:32:51.872Z,2.49
2018-01-07T00:32:56.086Z,2.48
2018-01-07T00:33:00.108Z,2.48
2018-01-07T00:33:04.350Z,2.48
2018-01-07T00:33:08.583Z,2.48
2018-01-07T00:33:12.899Z,2.47
2018-01-07T00:33:17.007Z,2.48
2018-01-07T00:33:21.342Z,2.47
2018-01-07T00:33:25.457Z,2.48
2018-01-07T00:33:29.685Z,2.47
2018-01-07T00:33:33.719Z,2.48
2018-01-07T00:33:37.947Z,2.48
2018-01-07T00:33:42.172Z,2.48
2018-01-07T00:33:46.283Z,2.48
2018-01-07T00:33:50.406Z,2.48
2018-01-07T00:33:54.655Z,2.48
2018-01-07T00:33:58.789Z,2.48
2018-01-07T00:34:02.917Z,2.48
2018-01-07T00:34:07.046Z,2.48
2018-01-07T00:34:11.180Z,2.47
2018-01-07T00:34:15.532Z,2.48
2018-01-07T00:34:19.770Z,2.48
2018-01-07T00:34:23.906Z,2.47
2018-01-07T00:34:27.923Z,2.48
2018-01-07T00:34:32.147Z,2.47
2018-01-07T00:34:36.391Z,2.49
2018-01-07T00:34:40.721Z,2.48
2018-01-07T00:34:45.063Z,2.48
2018-01-07T00:34:49.302Z,2.49
2018-01-07T00:34:53.442Z,2.49
2018-01-07T00:34:57.672Z,2.48
2018-01-07T00:35:01.907Z,2.49
2018-01-07T00:35:06.042Z,2.49
2018-01-07T00:35:10.272Z,2.48
2018-01-07T00:35:14.395Z,2.49
2018-01-07T00:35:18.518Z,2.48
2018-01-07T00:35:22.624Z,2.48
2018-01-07T00:35:26.862Z,2.49
2018-01-07T00:35:30.984Z,2.49
2018-01-07T00:35:35.005Z,2.48
2018-01-07T00:35:39.226Z,2.48
2018-01-07T00:35:43.435Z,2.49
2018-01-07T00:35:47.653Z,2.48
2018-01-07T00:35:51.987Z,2.48
2018-01-07T00:35:56.231Z,2.5
2018-01-07T00:36:00.458Z,2.48
2018-01-07T00:36:04.473Z,2.48
2018-01-07T00:36:08.700Z,2.49
2018-01-07T00:36:12.928Z,2.48
2018-01-07T00:36:17.263Z,2.49
2018-01-07T00:36:21.592Z,2.49
2018-01-07T00:36:25.612Z,2.48
2018-01-07T00:36:29.794Z,2.48
2018-01-07T00:36:33.929Z,2.49
2018-01-07T00:36:38.155Z,2.5
2018-01-07T00:36:42.505Z,2.49
2018-01-07T00:36:46.508Z,2.5
2018-01-07T00:36:50.865Z,2.48
2018-01-07T00:36:55.109Z,2.49
2018-01-07T00:36:59.225Z,2.49
2018-01-07T00:37:03.372Z,2.49
2018-01-07T00:37:07.586Z,2.49
2018-01-07T00:37:11.700Z,2.49
2018-01-07T00:37:15.821Z,2.48
2018-01-07T00:37:20.046Z,2.48
2018-01-07T00:37:24.272Z,2.49
2018-01-07T00:37:28.401Z,2.48
2018-01-07T00:37:32.417Z,2.49
2018-01-07T00:37:36.445Z,2.49
2018-01-07T00:37:40.559Z,2.49
2018-01-07T00:37:44.879Z,2.49
2018-01-07T00:37:48.902Z,2.48
2018-01-07T00:37:53.029Z,2.49
2018-01-07T00:37:57.273Z,2.49
2018-01-07T00:38:01.275Z,2.49
2018-01-07T00:38:05.560Z,2.48
2018-01-07T00:38:09.673Z,2.49
2018-01-07T00:38:13.792Z,2.49
2018-01-07T00:38:17.801Z,2.5
2018-01-07T00:38:22.037Z,2.49
2018-01-07T00:38:26.165Z,2.49
2018-01-07T00:38:30.280Z,2.5
2018-01-07T00:38:34.407Z,2.49
2018-01-07T00:38:38.743Z,2.49
2018-01-07T00:38:43.085Z,2.49
2018-01-07T00:38:47.425Z,2.49
2018-01-07T00:38:51.550Z,2.49
2018-01-07T00:38:55.769Z,2.49
2018-01-07T00:38:59.788Z,2.49
2018-01-07T00:39:04.074Z,2.49
2018-01-07T00:39:08.410Z,2.49
2018-01-07T00:39:12.751Z,2.48
2018-01-07T00:39:16.759Z,2.5
2018-01-07T00:39:21.081Z,2.5
2018-01-07T00:39:25.099Z,2.5
2018-01-07T00:39:29.028Z,2.5
2018-01-07T00:39:33.030Z,2.49
2018-01-07T00:39:37.268Z,2.48
2018-01-07T00:39:41.391Z,2.5
2018-01-07T00:39:45.407Z,2.5
2018-01-07T00:39:49.737Z,2.5
2018-01-07T00:39:53.975Z,2.5
2018-01-07T00:39:58.211Z,2.5
2018-01-07T00:40:02.330Z,2.5
2018-01-07T00:40:06.461Z,2.5
2018-01-07T00:40:10.840Z,2.49
2018-01-07T00:40:14.604Z,2.49
2018-01-07T00:40:18.942Z,2.5
2018-01-07T00:40:23.281Z,2.5
2018-01-07T00:40:27.518Z,2.5
2018-01-07T00:40:31.904Z,2.5
2018-01-07T00:40:36.050Z,2.5
2018-01-07T00:40:40.275Z,2.5
2018-01-07T00:40:44.599Z,2.51
2018-01-07T00:40:48.725Z,2.5
2018-01-07T00:40:53.046Z,2.5
2018-01-07T00:40:57.067Z,2.51
2018-01-07T00:41:01.383Z,2.5
2018-01-07T00:41:05.609Z,2.51
2018-01-07T00:41:09.844Z,2.51
2018-01-07T00:41:14.173Z,2.51
2018-01-07T00:41:18.411Z,2.52
2018-01-07T00:41:22.531Z,2.52
2018-01-07T00:41:26.665Z,2.51
2018-01-07T00:41:30.801Z,2.51
2018-01-07T00:41:34.738Z,2.51
2018-01-07T00:41:39.056Z,2.51
2018-01-07T00:41:43.301Z,2.51
2018-01-07T00:41:47.423Z,2.51
2018-01-07T00:41:51.804Z,2.52
2018-01-07T00:41:56.183Z,2.52
2018-01-07T00:42:00.300Z,2.51
2018-01-07T00:42:04.440Z,2.51
2018-01-07T00:42:08.770Z,2.51
2018-01-07T00:42:13.062Z,2.51
2018-01-07T00:42:17.408Z,2.52
2018-01-07T00:42:21.647Z,2.52
2018-01-07T00:42:25.937Z,2.51
2018-01-07T00:42:30.072Z,2.52
2018-01-07T00:42:34.422Z,2.51
2018-01-07T00:42:38.546Z,2.52
2018-01-07T00:42:42.572Z,2.52
2018-01-07T00:42:46.800Z,2.52
2018-01-07T00:42:51.170Z,2.51
2018-01-07T00:42:55.398Z,2.51
2018-01-07T00:42:59.525Z,2.52
2018-01-07T00:43:03.799Z,2.52
2018-01-07T00:43:07.614Z,2.52
2018-01-07T00:43:11.623Z,2.52
2018-01-07T00:43:15.753Z,2.52
2018-01-07T00:43:19.976Z,2.52
2018-01-07T00:43:24.200Z,2.52
2018-01-07T00:43:28.318Z,2.52
2018-01-07T00:43:32.119Z,2.52
2018-01-07T00:43:36.141Z,2.52
2018-01-07T00:43:40.362Z,2.52
2018-01-07T00:43:44.497Z,2.52
2018-01-07T00:43:48.519Z,2.53
2018-01-07T00:43:52.747Z,2.52
2018-01-07T00:43:56.995Z,2.52
2018-01-07T00:44:01.233Z,2.52
2018-01-07T00:44:05.405Z,2.53
2018-01-07T00:44:09.748Z,2.52
2018-01-07T00:44:13.966Z,2.53
2018-01-07T00:44:18.196Z,2.52
2018-01-07T00:44:22.324Z,2.53
2018-01-07T00:44:26.239Z,2.53
2018-01-07T00:44:30.238Z,2.52
2018-01-07T00:44:34.472Z,2.52
2018-01-07T00:44:38.604Z,2.52
2018-01-07T00:44:42.739Z,2.53
2018-01-07T00:44:46.984Z,2.52
2018-01-07T00:44:51.319Z,2.53
2018-01-07T00:44:55.464Z,2.53
2018-01-07T00:44:59.717Z,2.53
2018-01-07T00:45:03.914Z,2.53
2018-01-07T00:45:08.044Z,2.53
2018-01-07T00:45:12.276Z,2.53
2018-01-07T00:45:16.600Z,2.52
2018-01-07T00:45:20.938Z,2.53
2018-01-07T00:45:25.071Z,2.54
2018-01-07T00:45:29.400Z,2.53
2018-01-07T00:45:33.212Z,2.54
2018-01-07T00:45:37.438Z,2.53
2018-01-07T00:45:41.462Z,2.54
2018-01-07T00:45:45.597Z,2.54
2018-01-07T00:45:49.819Z,2.54
2018-01-07T00:45:54.053Z,2.54
2018-01-07T00:45:58.289Z,2.54
2018-01-07T00:46:02.865Z,2.54
2018-01-07T00:46:06.889Z,2.54
2018-01-07T00:46:11.127Z,2.54
2018-01-07T00:46:15.265Z,2.54
2018-01-07T00:46:19.406Z,2.55
2018-01-07T00:46:23.638Z,2.55
2018-01-07T00:46:27.983Z,2.55
2018-01-07T00:46:31.996Z,2.54
2018-01-07T00:46:36.123Z,2.55
2018-01-07T00:46:40.358Z,2.54
2018-01-07T00:46:44.682Z,2.54
2018-01-07T00:46:48.810Z,2.54
2018-01-07T00:46:53.041Z,2.54
2018-01-07T00:46:57.054Z,2.55
2018-01-07T00:47:01.287Z,2.55
2018-01-07T00:47:05.568Z,2.55
2018-01-07T00:47:09.903Z,2.55
2018-01-07T00:47:14.137Z,2.55
2018-01-07T00:47:18.488Z,2.55
2018-01-07T00:47:22.623Z,2.55
2018-01-07T00:47:26.758Z,2.56
2018-01-07T00:47:30.781Z,2.55
2018-01-07T00:47:35.036Z,2.55
2018-01-07T00:47:39.170Z,2.55
2018-01-07T00:47:43.412Z,2.55
2018-01-07T00:47:47.758Z,2.55
2018-01-07T00:47:51.885Z,2.56
2018-01-07T00:47:56.103Z,2.56
2018-01-07T00:48:00.328Z,2.55
2018-01-07T00:48:04.766Z,2.55
2018-01-07T00:48:09.109Z,2.55
2018-01-07T00:48:13.244Z,2.55
2018-01-07T00:48:17.485Z,2.55
2018-01-07T00:48:21.512Z,2.56
2018-01-07T00:48:25.652Z,2.56
2018-01-07T00:48:29.890Z,2.55
2018-01-07T00:48:33.697Z,2.55
2018-01-07T00:48:38.060Z,2.56
2018-01-07T00:48:42.273Z,2.56
2018-01-07T00:48:46.518Z,2.55
2018-01-07T00:48:50.635Z,2.55
2018-01-07T00:48:54.875Z,2.55
2018-01-07T00:48:58.992Z,2.55
2018-01-07T00:49:03.213Z,2.55
2018-01-07T00:49:07.233Z,2.56
2018-01-07T00:49:11.253Z,2.55
2018-01-07T00:49:15.488Z,2.55
2018-01-07T00:49:19.712Z,2.55
2018-01-07T00:49:24.070Z,2.55
2018-01-07T00:49:28.096Z,2.55
2018-01-07T00:49:32.214Z,2.55
2018-01-07T00:49:36.228Z,2.55
2018-01-07T00:49:40.569Z,2.55
2018-01-07T00:49:44.791Z,2.55
2018-01-07T00:49:49.115Z,2.54
2018-01-07T00:49:53.238Z,2.54
2018-01-07T00:49:57.468Z,2.54
2018-01-07T00:50:01.800Z,2.55
2018-01-07T00:50:05.822Z,2.55
2018-01-07T00:50:09.831Z,2.55
2018-01-07T00:50:13.940Z,2.55
2018-01-07T00:50:18.158Z,2.55
2018-01-07T00:50:22.390Z,2.55
2018-01-07T00:50:26.619Z,2.56
2018-01-07T00:50:30.755Z,2.55
2018-01-07T00:50:34.984Z,2.55
2018-01-07T00:50:39.309Z,2.55
2018-01-07T00:50:43.655Z,2.56
2018-01-07T00:50:47.576Z,2.55
2018-01-07T00:50:51.914Z,2.56
2018-01-07T00:50:55.932Z,2.56
2018-01-07T00:51:00.157Z,2.56
2018-01-07T00:51:04.594Z,2.55
2018-01-07T00:51:08.932Z,2.55
2018-01-07T00:51:12.963Z,2.55
2018-01-07T00:51:17.184Z,2.56
2018-01-07T00:51:21.299Z,2.55
2018-01-07T00:51:25.644Z,2.55
2018-01-07T00:51:29.879Z,2.55
2018-01-07T00:51:34.116Z,2.54
2018-01-07T00:51:38.363Z,2.55
2018-01-07T00:51:42.632Z,2.56
2018-01-07T00:51:46.883Z,2.55
2018-01-07T00:51:51.111Z,2.55
2018-01-07T00:51:55.339Z,2.56
2018-01-07T00:51:59.672Z,2.55
2018-01-07T00:52:03.929Z,2.55
2018-01-07T00:52:07.940Z,2.55
2018-01-07T00:52:12.082Z,2.56
2018-01-07T00:52:16.305Z,2.56
2018-01-07T00:52:20.534Z,2.56
2018-01-07T00:52:24.664Z,2.56
2018-01-07T00:52:28.798Z,2.57
2018-01-07T00:52:32.710Z,2.56
2018-01-07T00:52:36.942Z,2.56
2018-01-07T00:52:40.973Z,2.57
2018-01-07T00:52:45.205Z,2.56
2018-01-07T00:52:49.234Z,2.56
2018-01-07T00:52:53.448Z,2.55
2018-01-07T00:52:57.688Z,2.57
2018-01-07T00:53:02.033Z,2.56
2018-01-07T00:53:06.372Z,2.55
2018-01-07T00:53:10.602Z,2.56
2018-01-07T00:53:14.408Z,2.55
2018-01-07T00:53:18.794Z,2.56
2018-01-07T00:53:23.135Z,2.56
2018-01-07T00:53:27.365Z,2.56
2018-01-07T00:53:31.394Z,2.56
2018-01-07T00:53:35.632Z,2.56
2018-01-07T00:53:39.867Z,2.56
2018-01-07T00:53:44.208Z,2.56
2018-01-07T00:53:48.557Z,2.55
2018-01-07T00:53:52.776Z,2.55
2018-01-07T00:53:56.995Z,2.56
2018-01-07T00:54:01.112Z,2.56
2018-01-07T00:54:05.243Z,2.56
2018-01-07T00:54:09.377Z,2.56
2018-01-07T00:54:13.494Z,2.56
2018-01-07T00:54:17.621Z,2.55
2018-01-07T00:54:21.954Z,2.56
2018-01-07T00:54:26.177Z,2.56
2018-01-07T00:54:30.516Z,2.56
2018-01-07T00:54:34.409Z,2.55
2018-01-07T00:54:38.414Z,2.57
2018-01-07T00:54:42.531Z,2.56
2018-01-07T00:54:46.747Z,2.56
2018-01-07T00:54:50.880Z,2.57
2018-01-07T00:54:55.213Z,2.57
2018-01-07T00:54:59.572Z,2.56
2018-01-07T00:55:04.118Z,2.57
2018-01-07T00:55:08.458Z,2.56
2018-01-07T00:55:12.793Z,2.57
2018-01-07T00:55:16.929Z,2.57
2018-01-07T00:55:21.264Z,2.58
2018-01-07T00:55:25.495Z,2.57
2018-01-07T00:55:29.816Z,2.57
2018-01-07T00:55:34.364Z,2.58
2018-01-07T00:55:38.488Z,2.58
2018-01-07T00:55:42.617Z,2.59
2018-01-07T00:55:46.859Z,2.59
2018-01-07T00:55:51.002Z,2.58
2018-01-07T00:55:55.136Z,2.58
2018-01-07T00:55:59.468Z,2.59
2018-01-07T00:56:03.796Z,2.59
2018-01-07T00:56:08.025Z,2.58
2018-01-07T00:56:12.365Z,2.59
2018-01-07T00:56:16.494Z,2.59